Time;durP1;ratioP1;P1;durP2;ratioP2;P2;SDS_P1;SDS_P2;PMS_P1;PMS_P2;Temp;Humidity;BMP_temperature;BMP_pressure;BME280_temperature;BME280_humidity;BME280_pressure;Samples;Min_cycle;Max_cycle;Signal;HPM_P1;HPM_P2
2022/10/29 00:00:39;;;;;;;18.02;6.68;;;;;;;;;;4955697;28;20049;-60
2022/10/29 00:03:05;;;;;;;17.60;6.00;;;;;;;;;;4960101;28;20087;-60
2022/10/29 00:05:30;;;;;;;14.57;6.00;;;;;;;;;;4954679;28;20169;-57
2022/10/29 00:07:56;;;;;;;12.95;6.22;;;;;;;;;;4955339;28;20043;-58
2022/10/29 00:10:21;;;;;;;19.23;6.68;;;;;;;;;;4953832;28;20062;-59
2022/10/29 00:12:47;;;;;;;14.82;6.50;;;;;;;;;;4953155;28;20581;-57
2022/10/29 00:15:12;;;;;;;13.52;6.25;;;;;;;;;;4954611;28;20094;-57
2022/10/29 00:17:38;;;;;;;15.93;6.60;;;;;;;;;;4958718;28;20062;-58
2022/10/29 00:20:03;;;;;;;14.55;6.43;;;;;;;;;;4956624;28;20418;-59
2022/10/29 00:22:29;;;;;;;16.50;5.97;;;;;;;;;;4975573;28;20173;-59
2022/10/29 00:24:54;;;;;;;14.85;6.00;;;;;;;;;;4957968;28;20564;-60
2022/10/29 00:27:20;;;;;;;12.25;5.65;;;;;;;;;;4955321;28;20042;-59
2022/10/29 00:29:45;;;;;;;15.90;6.20;;;;;;;;;;4959924;28;20063;-59
2022/10/29 00:32:11;;;;;;;15.30;5.75;;;;;;;;;;4955932;28;20150;-60
2022/10/29 00:34:37;;;;;;;13.20;5.68;;;;;;;;;;4956102;28;20054;-59
2022/10/29 00:37:03;;;;;;;13.75;5.78;;;;;;;;;;4956047;28;20097;-60
2022/10/29 00:39:29;;;;;;;15.10;6.90;;;;;;;;;;4954578;28;20058;-56
2022/10/29 00:41:55;;;;;;;13.73;6.30;;;;;;;;;;4972233;28;20126;-58
2022/10/29 00:44:27;;;;;;;15.27;5.78;;;;;;;;;;4956188;28;20244;-61
2022/10/29 00:47:27;;;;;;;13.48;6.53;;;;;;;;;;4954506;28;20055;-59
2022/10/29 00:50:07;;;;;;;12.98;5.55;;;;;;;;;;4929631;28;20066;-58
2022/10/29 00:52:37;;;;;;;12.45;5.65;;;;;;;;;;4953520;28;20075;-60
2022/10/29 00:55:05;;;;;;;9.80;5.30;;;;;;;;;;4954053;28;20066;-59
2022/10/29 00:57:38;;;;;;;14.25;6.00;;;;;;;;;;4954259;28;20039;-60
2022/10/29 01:00:04;;;;;;;12.05;5.80;;;;;;;;;;4950897;28;20039;-60
2022/10/29 01:02:32;;;;;;;16.13;5.95;;;;;;;;;;4955615;28;20113;-59
2022/10/29 01:04:58;;;;;;;17.60;6.22;;;;;;;;;;4958495;28;20050;-60
2022/10/29 01:07:23;;;;;;;13.60;6.13;;;;;;;;;;4954316;28;20066;-60
2022/10/29 01:09:49;;;;;;;13.70;5.80;;;;;;;;;;4957245;28;20481;-57
2022/10/29 01:12:20;;;;;;;12.20;6.18;;;;;;;;;;4955650;28;20043;-60
2022/10/29 01:15:11;;;;;;;15.15;5.60;;;;;;;;;;4959476;28;20077;-60
2022/10/29 01:17:46;;;;;;;10.63;5.40;;;;;;;;;;4950525;28;20142;-60
2022/10/29 01:20:17;;;;;;;14.73;5.95;;;;;;;;;;4954172;28;20055;-60
2022/10/29 01:23:06;;;;;;;19.27;5.65;;;;;;;;;;4958907;28;20081;-59
2022/10/29 01:25:54;;;;;;;11.85;5.47;;;;;;;;;;4956513;28;20082;-59
2022/10/29 01:28:53;;;;;;;12.93;5.18;;;;;;;;;;4951751;28;20085;-55
2022/10/29 01:31:35;;;;;;;10.93;5.43;;;;;;;;;;4952813;28;20138;-61
2022/10/29 01:34:26;;;;;;;15.30;5.97;;;;;;;;;;4953042;28;20540;-60
2022/10/29 01:37:05;;;;;;;14.65;6.47;;;;;;;;;;4952760;28;20575;-57
2022/10/29 01:39:45;;;;;;;14.52;5.63;;;;;;;;;;4950327;28;20137;-58
2022/10/29 01:42:13;;;;;;;15.20;6.30;;;;;;;;;;4952033;28;20082;-59
2022/10/29 01:45:06;;;;;;;11.55;5.57;;;;;;;;;;4956746;28;20046;-60
2022/10/29 01:47:36;;;;;;;15.90;6.03;;;;;;;;;;4956166;28;20350;-58
2022/10/29 01:50:06;;;;;;;22.75;6.30;;;;;;;;;;4954622;28;20070;-58
2022/10/29 01:52:34;;;;;;;16.23;6.10;;;;;;;;;;4953697;28;21624;-60
2022/10/29 01:55:00;;;;;;;19.33;6.70;;;;;;;;;;4952260;28;20058;-60
2022/10/29 01:57:34;;;;;;;11.25;5.28;;;;;;;;;;4954276;28;20640;-60
2022/10/29 02:00:12;;;;;;;11.40;5.60;;;;;;;;;;4953181;28;20046;-61
2022/10/29 02:02:56;;;;;;;13.07;5.32;;;;;;;;;;4951030;28;21112;-61
2022/10/29 02:05:37;;;;;;;9.75;5.10;;;;;;;;;;4956851;28;20058;-59
2022/10/29 02:08:15;;;;;;;14.20;5.60;;;;;;;;;;4954738;28;20150;-59
2022/10/29 02:10:52;;;;;;;13.57;6.00;;;;;;;;;;4955768;28;20058;-59
2022/10/29 02:13:20;;;;;;;18.45;5.93;;;;;;;;;;4948674;28;20633;-59
2022/10/29 02:15:49;;;;;;;13.02;5.63;;;;;;;;;;4954409;28;20043;-55
2022/10/29 02:18:16;;;;;;;17.15;5.72;;;;;;;;;;4955384;28;20047;-58
2022/10/29 02:20:43;;;;;;;14.35;5.70;;;;;;;;;;4951050;28;20050;-57
2022/10/29 02:23:09;;;;;;;13.80;5.18;;;;;;;;;;4962233;28;20194;-58
2022/10/29 02:25:35;;;;;;;15.90;5.80;;;;;;;;;;4954903;28;20050;-58
2022/10/29 02:28:00;;;;;;;15.18;5.35;;;;;;;;;;4950699;28;20066;-58
2022/10/29 02:30:26;;;;;;;18.60;5.45;;;;;;;;;;4949751;28;21626;-56
2022/10/29 02:32:51;;;;;;;16.80;5.38;;;;;;;;;;4949802;28;20031;-59
2022/10/29 02:35:16;;;;;;;14.93;5.70;;;;;;;;;;4948501;28;20086;-57
2022/10/29 02:37:42;;;;;;;12.98;5.70;;;;;;;;;;4956841;28;20137;-56
2022/10/29 02:40:08;;;;;;;12.52;4.90;;;;;;;;;;4951313;28;21882;-58
2022/10/29 02:42:33;;;;;;;11.32;5.55;;;;;;;;;;4953211;28;20470;-57
2022/10/29 02:44:59;;;;;;;11.32;4.97;;;;;;;;;;4956520;28;20030;-58
2022/10/29 02:47:24;;;;;;;16.20;5.57;;;;;;;;;;4950237;28;20067;-58
2022/10/29 02:49:50;;;;;;;16.98;6.10;;;;;;;;;;4953909;28;20061;-58
2022/10/29 02:52:15;;;;;;;13.35;5.43;;;;;;;;;;4952929;28;20047;-60
2022/10/29 02:54:41;;;;;;;17.88;5.50;;;;;;;;;;4958863;28;20035;-55
2022/10/29 02:57:07;;;;;;;15.30;6.00;;;;;;;;;;4960560;28;20133;-58
2022/10/29 02:59:32;;;;;;;15.40;5.82;;;;;;;;;;4952018;28;20066;-58
2022/10/29 03:01:58;;;;;;;11.38;5.25;;;;;;;;;;4952047;28;20166;-58
2022/10/29 03:04:23;;;;;;;19.33;5.55;;;;;;;;;;4961058;28;20141;-57
2022/10/29 03:06:48;;;;;;;12.40;5.30;;;;;;;;;;4956408;28;20058;-58
2022/10/29 03:09:14;;;;;;;16.85;5.47;;;;;;;;;;4957037;28;20074;-57
2022/10/29 03:11:39;;;;;;;12.57;5.90;;;;;;;;;;4950699;28;20043;-58
2022/10/29 03:14:05;;;;;;;13.30;4.97;;;;;;;;;;4954062;28;20117;-58
2022/10/29 03:16:30;;;;;;;15.95;5.25;;;;;;;;;;4950101;28;20077;-58
2022/10/29 03:18:55;;;;;;;14.30;5.32;;;;;;;;;;4959326;28;20078;-59
2022/10/29 03:21:21;;;;;;;17.73;5.47;;;;;;;;;;4956206;28;20081;-58
2022/10/29 03:23:46;;;;;;;15.13;5.05;;;;;;;;;;4957997;28;20055;-56
2022/10/29 03:26:12;;;;;;;11.27;4.95;;;;;;;;;;4960957;28;20074;-58
2022/10/29 03:28:37;;;;;;;12.10;4.70;;;;;;;;;;4951564;28;20117;-59
2022/10/29 03:31:02;;;;;;;13.98;5.05;;;;;;;;;;4949277;28;20053;-63
2022/10/29 03:33:28;;;;;;;14.18;5.25;;;;;;;;;;4954449;28;20105;-58
2022/10/29 03:36:02;;;;;;;11.82;4.95;;;;;;;;;;4954428;28;20035;-58
2022/10/29 03:38:28;;;;;;;15.63;5.82;;;;;;;;;;4959761;28;20480;-58
2022/10/29 03:40:54;;;;;;;13.45;6.32;;;;;;;;;;4951362;28;20047;-57
2022/10/29 03:43:20;;;;;;;15.68;5.55;;;;;;;;;;4957314;28;20145;-59
2022/10/29 03:45:50;;;;;;;14.73;5.65;;;;;;;;;;4956296;28;20054;-59
2022/10/29 03:48:15;;;;;;;13.70;5.60;;;;;;;;;;4960355;28;20070;-58
2022/10/29 03:50:40;;;;;;;21.63;5.80;;;;;;;;;;4956849;28;20621;-57
2022/10/29 03:53:07;;;;;;;13.45;6.20;;;;;;;;;;4960021;28;20051;-60
2022/10/29 03:55:32;;;;;;;18.15;5.75;;;;;;;;;;4956253;28;20085;-59
2022/10/29 03:57:58;;;;;;;12.82;5.90;;;;;;;;;;4956343;28;20059;-61
2022/10/29 04:00:23;;;;;;;14.35;5.43;;;;;;;;;;4953538;28;20047;-59
2022/10/29 04:02:48;;;;;;;15.57;5.60;;;;;;;;;;4953715;28;20034;-56
2022/10/29 04:05:14;;;;;;;11.93;5.10;;;;;;;;;;4957609;28;20528;-58
2022/10/29 04:07:39;;;;;;;13.65;5.32;;;;;;;;;;4955726;28;20062;-58
2022/10/29 04:10:05;;;;;;;17.05;5.85;;;;;;;;;;4958804;28;20184;-58
2022/10/29 04:12:30;;;;;;;13.10;5.65;;;;;;;;;;4955694;28;20043;-58
2022/10/29 04:14:55;;;;;;;13.65;5.05;;;;;;;;;;4954625;28;20193;-58
2022/10/29 04:17:21;;;;;;;14.75;5.53;;;;;;;;;;4954927;28;20034;-57
2022/10/29 04:19:46;;;;;;;14.88;5.45;;;;;;;;;;4957674;28;20072;-55
2022/10/29 04:22:12;;;;;;;16.15;5.20;;;;;;;;;;4956909;28;20054;-58
2022/10/29 04:24:37;;;;;;;18.70;4.50;;;;;;;;;;4957561;28;20031;-58
2022/10/29 04:27:02;;;;;;;14.77;5.53;;;;;;;;;;4956010;28;20038;-56
2022/10/29 04:29:28;;;;;;;15.60;5.30;;;;;;;;;;4948738;28;20054;-58
2022/10/29 04:31:53;;;;;;;12.02;5.03;;;;;;;;;;4951656;28;20140;-57
2022/10/29 04:34:19;;;;;;;13.48;5.38;;;;;;;;;;4953305;28;20062;-59
2022/10/29 04:36:44;;;;;;;15.52;5.10;;;;;;;;;;4950838;28;20494;-59
2022/10/29 04:39:09;;;;;;;10.63;4.28;;;;;;;;;;4959432;28;20141;-58
2022/10/29 04:41:35;;;;;;;13.43;4.70;;;;;;;;;;4957474;28;20054;-57
2022/10/29 04:44:01;;;;;;;15.00;5.03;;;;;;;;;;4958793;28;20050;-58
2022/10/29 04:46:27;;;;;;;13.70;4.80;;;;;;;;;;4953099;28;20050;-57
2022/10/29 04:48:52;;;;;;;13.02;5.20;;;;;;;;;;4953639;28;20062;-58
2022/10/29 04:51:19;;;;;;;14.15;5.00;;;;;;;;;;4956073;28;20100;-56
2022/10/29 04:53:44;;;;;;;11.32;4.90;;;;;;;;;;4954213;28;20133;-59
2022/10/29 04:56:10;;;;;;;15.02;5.30;;;;;;;;;;4952188;28;20046;-57
2022/10/29 04:58:35;;;;;;;13.15;5.68;;;;;;;;;;4949832;28;20079;-59
2022/10/29 05:01:01;;;;;;;13.02;5.30;;;;;;;;;;4947216;28;20050;-58
2022/10/29 05:03:26;;;;;;;9.65;4.88;;;;;;;;;;4949678;28;20584;-57
2022/10/29 05:05:52;;;;;;;10.95;4.90;;;;;;;;;;4952534;28;20045;-58
2022/10/29 05:08:17;;;;;;;13.82;4.93;;;;;;;;;;4959451;28;20394;-55
2022/10/29 05:10:43;;;;;;;15.23;5.40;;;;;;;;;;4951755;28;20086;-58
2022/10/29 05:13:11;;;;;;;14.15;5.38;;;;;;;;;;4952121;28;20485;-58
2022/10/29 05:15:38;;;;;;;11.98;5.18;;;;;;;;;;4954944;28;20038;-58
2022/10/29 05:18:04;;;;;;;10.45;4.43;;;;;;;;;;4951848;28;20035;-61
2022/10/29 05:20:30;;;;;;;12.75;5.03;;;;;;;;;;4952616;28;20050;-61
2022/10/29 05:22:59;;;;;;;14.55;4.68;;;;;;;;;;4954886;28;22070;-62
2022/10/29 05:25:25;;;;;;;15.10;5.00;;;;;;;;;;4954335;28;20541;-61
2022/10/29 05:28:11;;;;;;;13.43;5.07;;;;;;;;;;4955256;28;20443;-61
2022/10/29 05:30:37;;;;;;;12.60;4.32;;;;;;;;;;4944805;28;20176;-61
2022/10/29 05:33:07;;;;;;;17.83;4.88;;;;;;;;;;4952210;28;20043;-62
2022/10/29 05:35:32;;;;;;;18.08;5.13;;;;;;;;;;4954283;28;20050;-61
2022/10/29 05:37:59;;;;;;;7.93;4.53;;;;;;;;;;4971007;28;20113;-62
2022/10/29 05:40:24;;;;;;;11.57;4.70;;;;;;;;;;4951680;28;20054;-61
2022/10/29 05:42:50;;;;;;;11.35;4.90;;;;;;;;;;4953751;28;20089;-64
2022/10/29 05:45:16;;;;;;;14.45;5.47;;;;;;;;;;4958041;28;20097;-61
2022/10/29 05:47:41;;;;;;;12.98;5.13;;;;;;;;;;4962359;28;20063;-62
2022/10/29 05:50:07;;;;;;;16.80;5.25;;;;;;;;;;4961050;28;20661;-61
2022/10/29 05:52:32;;;;;;;16.67;5.38;;;;;;;;;;4960969;28;20121;-62
2022/10/29 05:54:58;;;;;;;15.15;6.05;;;;;;;;;;4962830;28;20268;-63
2022/10/29 05:57:23;;;;;;;12.82;5.28;;;;;;;;;;4956492;28;20442;-61
2022/10/29 05:59:48;;;;;;;17.05;5.50;;;;;;;;;;4956945;28;20114;-62
2022/10/29 06:02:14;;;;;;;17.63;5.03;;;;;;;;;;4956663;28;20042;-61
2022/10/29 06:04:39;;;;;;;14.57;5.07;;;;;;;;;;4973226;28;20050;-61
2022/10/29 06:07:05;;;;;;;14.40;5.07;;;;;;;;;;4959702;28;20070;-62
2022/10/29 06:09:30;;;;;;;14.27;5.13;;;;;;;;;;4957929;28;20113;-62
2022/10/29 06:11:56;;;;;;;15.00;4.68;;;;;;;;;;4965514;28;20049;-61
2022/10/29 06:14:22;;;;;;;15.15;5.22;;;;;;;;;;4966438;28;20050;-62
2022/10/29 06:16:47;;;;;;;17.33;5.05;;;;;;;;;;4955719;28;21428;-61
2022/10/29 06:19:13;;;;;;;12.43;4.78;;;;;;;;;;4959017;28;20597;-61
2022/10/29 06:21:38;;;;;;;12.73;5.35;;;;;;;;;;4943473;28;20034;-61
2022/10/29 06:24:04;;;;;;;15.45;4.95;;;;;;;;;;4969316;28;20026;-60
2022/10/29 06:26:29;;;;;;;9.52;4.93;;;;;;;;;;4965457;28;21220;-61
2022/10/29 06:28:55;;;;;;;12.30;4.95;;;;;;;;;;4956188;28;20116;-61
2022/10/29 06:31:20;;;;;;;15.23;5.22;;;;;;;;;;4963497;28;20058;-61
2022/10/29 06:33:46;;;;;;;15.50;5.50;;;;;;;;;;4955605;28;20130;-61
2022/10/29 06:36:11;;;;;;;14.10;5.55;;;;;;;;;;4959337;28;20043;-61
2022/10/29 06:38:36;;;;;;;15.20;5.60;;;;;;;;;;4961416;28;20509;-61
2022/10/29 06:41:02;;;;;;;13.98;5.00;;;;;;;;;;4956316;28;20051;-63
2022/10/29 06:43:27;;;;;;;13.20;5.10;;;;;;;;;;4955305;28;20089;-68
2022/10/29 06:45:53;;;;;;;16.10;5.13;;;;;;;;;;4957451;28;20050;-62
2022/10/29 06:48:18;;;;;;;17.38;5.28;;;;;;;;;;4962538;28;20042;-61
2022/10/29 06:50:44;;;;;;;14.77;4.88;;;;;;;;;;4962400;28;20042;-61
2022/10/29 06:53:12;;;;;;;13.32;5.10;;;;;;;;;;4958358;28;20114;-61
2022/10/29 06:55:37;;;;;;;12.00;5.10;;;;;;;;;;4959057;28;20524;-62
2022/10/29 06:58:04;;;;;;;15.25;4.90;;;;;;;;;;4958057;28;20066;-62
2022/10/29 07:00:31;;;;;;;14.15;5.03;;;;;;;;;;4955555;28;20042;-61
2022/10/29 07:02:56;;;;;;;12.88;4.65;;;;;;;;;;4964233;28;20027;-62
2022/10/29 07:05:23;;;;;;;12.23;5.22;;;;;;;;;;4962360;28;20101;-61
2022/10/29 07:07:48;;;;;;;16.83;4.95;;;;;;;;;;4956651;28;20388;-65
2022/10/29 07:10:14;;;;;;;17.23;5.90;;;;;;;;;;4955090;28;20063;-60
2022/10/29 07:12:41;;;;;;;12.07;5.13;;;;;;;;;;4957156;28;20043;-60
2022/10/29 07:15:07;;;;;;;13.10;5.53;;;;;;;;;;4957020;28;20397;-60
2022/10/29 07:17:32;;;;;;;15.25;5.32;;;;;;;;;;4951841;28;20047;-61
2022/10/29 07:19:58;;;;;;;19.85;5.90;;;;;;;;;;4951250;28;20202;-63
2022/10/29 07:22:23;;;;;;;15.18;5.50;;;;;;;;;;4962116;28;20046;-66
2022/10/29 07:24:49;;;;;;;13.63;5.32;;;;;;;;;;4963454;28;20533;-65
2022/10/29 07:27:14;;;;;;;11.30;5.28;;;;;;;;;;4963585;28;20042;-66
2022/10/29 07:29:40;;;;;;;20.48;5.95;;;;;;;;;;4963732;28;20055;-66
2022/10/29 07:32:05;;;;;;;14.32;5.30;;;;;;;;;;4959857;28;20122;-63
2022/10/29 07:34:30;;;;;;;13.48;5.20;;;;;;;;;;4963184;28;20042;-62
2022/10/29 07:36:56;;;;;;;25.65;5.90;;;;;;;;;;4964287;28;20050;-69
2022/10/29 07:39:21;;;;;;;18.38;5.28;;;;;;;;;;4965634;28;20031;-69
2022/10/29 07:41:47;;;;;;;19.02;5.85;;;;;;;;;;4964345;28;20071;-69
2022/10/29 07:44:12;;;;;;;15.75;5.35;;;;;;;;;;4961359;28;20062;-69
2022/10/29 07:46:37;;;;;;;22.95;5.55;;;;;;;;;;4959111;28;20056;-66
2022/10/29 07:49:03;;;;;;;12.52;5.28;;;;;;;;;;4957577;28;20046;-66
2022/10/29 07:51:28;;;;;;;11.98;5.05;;;;;;;;;;4960912;28;20038;-65
2022/10/29 07:53:54;;;;;;;15.60;4.80;;;;;;;;;;4969007;28;20494;-65
2022/10/29 07:56:19;;;;;;;16.20;5.35;;;;;;;;;;4965804;28;20046;-62
2022/10/29 07:58:44;;;;;;;17.83;5.80;;;;;;;;;;4962704;28;20142;-63
2022/10/29 08:01:10;;;;;;;14.93;5.07;;;;;;;;;;4965741;28;20047;-63
2022/10/29 08:03:36;;;;;;;12.23;5.22;;;;;;;;;;4958382;28;20127;-63
2022/10/29 08:06:01;;;;;;;15.00;5.03;;;;;;;;;;4958463;28;20146;-63
2022/10/29 08:08:26;;;;;;;14.32;6.22;;;;;;;;;;4962139;28;20127;-65
2022/10/29 08:10:52;;;;;;;15.93;5.95;;;;;;;;;;4962188;28;20050;-61
2022/10/29 08:13:17;;;;;;;13.65;5.03;;;;;;;;;;4967835;28;20055;-62
2022/10/29 08:15:45;;;;;;;16.55;5.25;;;;;;;;;;4963074;28;20051;-66
2022/10/29 08:18:14;;;;;;;12.85;5.10;;;;;;;;;;4966097;28;20450;-65
2022/10/29 08:20:40;;;;;;;13.95;5.93;;;;;;;;;;4955324;28;20137;-69
2022/10/29 08:23:05;;;;;;;16.48;5.70;;;;;;;;;;4966101;28;20516;-71
2022/10/29 08:25:31;;;;;;;18.77;5.38;;;;;;;;;;4968642;28;20101;-70
2022/10/29 08:28:01;;;;;;;26.33;6.35;;;;;;;;;;4957315;28;20528;-70
2022/10/29 08:30:27;;;;;;;14.98;5.43;;;;;;;;;;4967443;28;20062;-62
2022/10/29 08:32:52;;;;;;;14.05;6.13;;;;;;;;;;4969341;28;20038;-61
2022/10/29 08:35:18;;;;;;;14.70;5.20;;;;;;;;;;4955172;28;20109;-62
2022/10/29 08:37:44;;;;;;;19.70;5.57;;;;;;;;;;4958083;28;20062;-61
2022/10/29 08:40:28;;;;;;;13.98;5.47;;;;;;;;;;4957211;28;20049;-61
2022/10/29 08:43:12;;;;;;;17.23;5.75;;;;;;;;;;4958966;28;20053;-64
2022/10/29 08:45:48;;;;;;;14.32;5.63;;;;;;;;;;4960283;28;20034;-59
2022/10/29 08:48:13;;;;;;;18.45;5.63;;;;;;;;;;4957562;28;20043;-58
2022/10/29 08:50:45;;;;;;;16.30;6.15;;;;;;;;;;4956979;28;20050;-59
2022/10/29 08:53:17;;;;;;;12.32;5.97;;;;;;;;;;4960444;28;20067;-59
2022/10/29 08:55:45;;;;;;;12.33;5.30;;;;;;;;;;4960629;28;21039;-65
2022/10/29 08:58:39;;;;;;;12.45;5.55;;;;;;;;;;4964911;28;20039;-65
2022/10/29 09:01:10;;;;;;;15.45;5.78;;;;;;;;;;4965714;28;20122;-61
2022/10/29 09:03:35;;;;;;;12.77;5.32;;;;;;;;;;4965608;28;20097;-62
2022/10/29 09:06:21;;;;;;;17.35;5.88;;;;;;;;;;4964336;28;20034;-57
2022/10/29 09:08:59;;;;;;;13.50;5.00;;;;;;;;;;4965068;28;20169;-59
2022/10/29 09:11:43;;;;;;;24.13;6.80;;;;;;;;;;4954954;28;20100;-59
2022/10/29 09:14:30;;;;;;;23.38;6.35;;;;;;;;;;4956005;28;20066;-58
2022/10/29 09:17:04;;;;;;;20.83;7.03;;;;;;;;;;4957367;28;20116;-69
2022/10/29 09:19:58;;;;;;;14.95;5.88;;;;;;;;;;4956063;28;20105;-69
2022/10/29 09:22:39;;;;;;;19.10;6.13;;;;;;;;;;4962897;28;20043;-64
2022/10/29 09:25:19;;;;;;;19.45;6.28;;;;;;;;;;4968268;28;20059;-66
2022/10/29 09:28:06;;;;;;;14.85;6.47;;;;;;;;;;4964319;28;20081;-67
2022/10/29 09:30:58;;;;;;;16.90;6.65;;;;;;;;;;4954614;28;20038;-60
2022/10/29 09:33:24;;;;;;;16.73;6.18;;;;;;;;;;4925577;28;20173;-63
2022/10/29 09:35:54;;;;;;;18.15;5.82;;;;;;;;;;4953980;28;20031;-64
2022/10/29 09:38:29;;;;;;;21.25;7.07;;;;;;;;;;4954501;28;20108;-63
2022/10/29 09:40:57;;;;;;;24.58;6.93;;;;;;;;;;4956100;28;20105;-65
2022/10/29 09:43:45;;;;;;;24.20;6.82;;;;;;;;;;4956882;28;20067;-65
2022/10/29 09:46:27;;;;;;;17.92;6.88;;;;;;;;;;4956486;28;20051;-63
2022/10/29 09:49:15;;;;;;;15.87;6.57;;;;;;;;;;4955161;28;20133;-61
2022/10/29 09:51:45;;;;;;;20.00;7.60;;;;;;;;;;4955388;28;20401;-66
2022/10/29 09:54:11;;;;;;;17.70;6.97;;;;;;;;;;4962832;28;20042;-66
2022/10/29 09:56:41;;;;;;;25.30;6.90;;;;;;;;;;4964393;28;20460;-61
2022/10/29 09:59:17;;;;;;;19.73;6.68;;;;;;;;;;4955759;28;20063;-61
2022/10/29 10:01:42;;;;;;;20.60;7.10;;;;;;;;;;4962635;28;20047;-61
2022/10/29 10:04:29;;;;;;;17.95;6.95;;;;;;;;;;4960615;28;20050;-66
2022/10/29 10:07:20;;;;;;;21.70;6.97;;;;;;;;;;4951241;28;20054;-61
2022/10/29 10:09:49;;;;;;;18.90;7.38;;;;;;;;;;4955333;28;20062;-62
2022/10/29 10:12:15;;;;;;;20.02;7.05;;;;;;;;;;4959264;28;20494;-65
2022/10/29 10:14:40;;;;;;;20.75;6.68;;;;;;;;;;4953683;28;20057;-65
2022/10/29 10:17:06;;;;;;;19.55;7.28;;;;;;;;;;4962668;28;20498;-67
2022/10/29 10:19:32;;;;;;;14.00;6.38;;;;;;;;;;4966789;28;20042;-67
2022/10/29 10:22:03;;;;;;;17.13;6.63;;;;;;;;;;4965692;28;20497;-67
2022/10/29 10:24:31;;;;;;;16.52;6.57;;;;;;;;;;4960859;28;20046;-67
2022/10/29 10:26:57;;;;;;;19.50;7.38;;;;;;;;;;4968811;28;20478;-59
2022/10/29 10:29:24;;;;;;;18.20;7.10;;;;;;;;;;4964459;28;20038;-59
2022/10/29 10:31:55;;;;;;;21.40;6.85;;;;;;;;;;4961300;28;20517;-61
2022/10/29 10:34:23;;;;;;;14.73;6.50;;;;;;;;;;4957571;28;20066;-61
2022/10/29 10:37:04;;;;;;;20.15;6.75;;;;;;;;;;4958132;28;20050;-62
2022/10/29 10:39:31;;;;;;;17.52;6.65;;;;;;;;;;4965307;28;20043;-62
2022/10/29 10:42:00;;;;;;;25.83;7.20;;;;;;;;;;4956315;28;20757;-64
2022/10/29 10:44:27;;;;;;;16.75;6.47;;;;;;;;;;4960411;28;20465;-65
2022/10/29 10:46:55;;;;;;;16.25;6.30;;;;;;;;;;4959854;28;20101;-65
2022/10/29 10:49:34;;;;;;;18.42;6.80;;;;;;;;;;4959281;28;20054;-65
2022/10/29 10:52:04;;;;;;;20.08;6.90;;;;;;;;;;4963291;28;20058;-65
2022/10/29 10:54:42;;;;;;;22.85;6.95;;;;;;;;;;4962368;28;20039;-65
2022/10/29 10:57:10;;;;;;;17.90;6.47;;;;;;;;;;4959932;28;20089;-58
2022/10/29 10:59:45;;;;;;;19.85;6.88;;;;;;;;;;4954945;28;20118;-58
2022/10/29 11:02:36;;;;;;;17.73;6.95;;;;;;;;;;4960164;28;20064;-57
2022/10/29 11:05:18;;;;;;;19.27;6.38;;;;;;;;;;4969507;28;20047;-60
2022/10/29 11:08:01;;;;;;;19.13;7.28;;;;;;;;;;4957952;28;20031;-56
2022/10/29 11:10:44;;;;;;;15.40;6.80;;;;;;;;;;4955566;28;20066;-58
2022/10/29 11:13:15;;;;;;;22.15;6.30;;;;;;;;;;4959818;28;20291;-57
2022/10/29 11:15:49;;;;;;;16.65;6.90;;;;;;;;;;4961523;28;20409;-61
2022/10/29 11:18:36;;;;;;;17.30;6.90;;;;;;;;;;4956212;28;20496;-61
2022/10/29 11:21:12;;;;;;;16.77;6.68;;;;;;;;;;4954853;28;20090;-62
2022/10/29 11:24:00;;;;;;;17.35;6.53;;;;;;;;;;4957893;28;20101;-62
2022/10/29 11:26:39;;;;;;;15.93;6.82;;;;;;;;;;4961929;28;20452;-57
2022/10/29 11:29:23;;;;;;;17.50;6.93;;;;;;;;;;4954974;28;20046;-59
2022/10/29 11:31:57;;;;;;;18.45;7.03;;;;;;;;;;4959921;28;20470;-60
2022/10/29 11:35:03;;;;;;;20.80;6.50;;;;;;;;;;4961042;28;20049;-60
2022/10/29 11:37:40;;;;;;;15.10;6.88;;;;;;;;;;4963409;28;20130;-60
2022/10/29 11:40:20;;;;;;;17.92;6.68;;;;;;;;;;4953102;28;20058;-62
2022/10/29 11:42:46;;;;;;;16.55;7.13;;;;;;;;;;4962348;28;20367;-65
2022/10/29 11:45:16;;;;;;;17.25;7.03;;;;;;;;;;4958825;28;20092;-70
2022/10/29 11:47:57;;;;;;;19.38;7.05;;;;;;;;;;4959744;28;20051;-68
2022/10/29 11:50:41;;;;;;;17.25;6.80;;;;;;;;;;4959964;28;20074;-67
2022/10/29 11:53:37;;;;;;;18.75;7.43;;;;;;;;;;4963151;28;20114;-66
2022/10/29 11:56:31;;;;;;;17.20;6.82;;;;;;;;;;4958413;28;20109;-65
2022/10/29 11:59:06;;;;;;;21.25;7.22;;;;;;;;;;4957479;28;20397;-66
2022/10/29 12:01:31;;;;;;;14.38;7.47;;;;;;;;;;4956767;28;20086;-60
2022/10/29 12:04:12;;;;;;;19.20;7.35;;;;;;;;;;4954322;28;20269;-60
2022/10/29 12:06:45;;;;;;;18.83;6.93;;;;;;;;;;4954952;28;20804;-65
2022/10/29 12:09:22;;;;;;;17.65;6.82;;;;;;;;;;4953731;28;20097;-65
2022/10/29 12:12:29;;;;;;;22.58;7.53;;;;;;;;;;4954312;28;20054;-65
2022/10/29 12:15:32;;;;;;;13.40;6.85;;;;;;;;;;4957351;28;20465;-65
2022/10/29 12:18:42;;;;;;;15.48;6.60;;;;;;;;;;4955766;28;20616;-65
2022/10/29 12:21:43;;;;;;;19.15;7.30;;;;;;;;;;4932998;28;20155;-62
2022/10/29 12:24:27;;;;;;;19.77;7.57;;;;;;;;;;4956015;28;20415;-61
2022/10/29 12:27:04;;;;;;;17.90;8.00;;;;;;;;;;4957414;28;20079;-64
2022/10/29 12:29:48;;;;;;;21.60;8.45;;;;;;;;;;4958254;28;20047;-65
2022/10/29 12:32:29;;;;;;;24.77;8.05;;;;;;;;;;4958107;28;20681;-65
2022/10/29 12:35:01;;;;;;;16.75;6.93;;;;;;;;;;4955292;28;20051;-64
2022/10/29 12:37:27;;;;;;;17.50;6.85;;;;;;;;;;4963277;28;20046;-62
2022/10/29 12:39:58;;;;;;;19.17;7.20;;;;;;;;;;4955503;28;20051;-62
2022/10/29 12:42:25;;;;;;;19.20;6.97;;;;;;;;;;4929678;28;20031;-60
2022/10/29 12:45:32;;;;;;;15.48;6.72;;;;;;;;;;4950373;28;20109;-61
2022/10/29 12:48:19;;;;;;;17.13;7.30;;;;;;;;;;4953293;28;20051;-66
2022/10/29 12:51:11;;;;;;;14.30;6.78;;;;;;;;;;4952067;28;20054;-67
2022/10/29 12:53:48;;;;;;;19.50;7.43;;;;;;;;;;4957822;28;20046;-68
2022/10/29 12:56:15;;;;;;;18.52;7.47;;;;;;;;;;4954861;28;20055;-57
2022/10/29 12:58:51;;;;;;;23.20;8.65;;;;;;;;;;4951964;28;20051;-58
2022/10/29 13:01:26;;;;;;;21.45;8.20;;;;;;;;;;4969670;28;20485;-58
2022/10/29 13:03:54;;;;;;;22.75;6.93;;;;;;;;;;4955788;28;20568;-60
2022/10/29 13:06:41;;;;;;;15.30;6.57;;;;;;;;;;4954643;28;20031;-67
2022/10/29 13:09:26;;;;;;;18.05;6.20;;;;;;;;;;4952308;28;20106;-66
2022/10/29 13:11:55;;;;;;;14.70;6.47;;;;;;;;;;4952684;28;20055;-62
2022/10/29 13:14:27;;;;;;;23.83;6.55;;;;;;;;;;4948680;28;21036;-60
2022/10/29 13:16:54;;;;;;;22.67;6.72;;;;;;;;;;4952279;28;20105;-63
2022/10/29 13:19:41;;;;;;;16.58;6.70;;;;;;;;;;4952329;28;20102;-63
2022/10/29 13:22:44;;;;;;;16.95;7.28;;;;;;;;;;4953921;28;20070;-64
2022/10/29 13:25:37;;;;;;;19.55;7.25;;;;;;;;;;4953676;28;20069;-64
2022/10/29 13:28:08;;;;;;;16.15;6.40;;;;;;;;;;4947173;28;20055;-63
2022/10/29 13:30:37;;;;;;;21.77;7.22;;;;;;;;;;4955618;28;20039;-66
2022/10/29 13:33:22;;;;;;;14.15;6.00;;;;;;;;;;4954316;28;20093;-66
2022/10/29 13:36:17;;;;;;;18.92;6.50;;;;;;;;;;4956874;28;20093;-57
2022/10/29 13:38:43;;;;;;;20.05;10.13;;;;;;;;;;4921481;28;20626;-57
2022/10/29 13:41:12;;;;;;;26.13;9.23;;;;;;;;;;4941856;28;20087;-57
2022/10/29 13:43:40;;;;;;;23.30;9.50;;;;;;;;;;4948507;28;20058;-59
2022/10/29 13:46:20;;;;;;;15.90;7.88;;;;;;;;;;4950121;28;20055;-66
2022/10/29 13:48:46;;;;;;;20.10;7.97;;;;;;;;;;4949802;28;20074;-65
2022/10/29 13:51:18;;;;;;;20.67;7.10;;;;;;;;;;4950425;28;21655;-59
2022/10/29 13:54:07;;;;;;;20.50;6.95;;;;;;;;;;4962412;28;20070;-55
2022/10/29 13:56:52;;;;;;;27.60;9.18;;;;;;;;;;4945010;28;20070;-60
2022/10/29 13:59:38;;;;;;;18.17;7.55;;;;;;;;;;4946807;28;20081;-61
2022/10/29 14:02:27;;;;;;;21.33;7.65;;;;;;;;;;4950093;28;20070;-71
2022/10/29 14:04:57;;;;;;;20.52;6.82;;;;;;;;;;4955604;28;20253;-70
2022/10/29 14:07:40;;;;;;;19.58;6.82;;;;;;;;;;4956199;28;20054;-61
2022/10/29 14:10:16;;;;;;;17.33;7.32;;;;;;;;;;4958595;28;20059;-60
2022/10/29 14:12:45;;;;;;;19.85;6.90;;;;;;;;;;4955554;28;20540;-61
2022/10/29 14:15:13;;;;;;;15.57;6.80;;;;;;;;;;4954971;28;20039;-71
2022/10/29 14:17:39;;;;;;;15.70;6.43;;;;;;;;;;4959193;28;20097;-71
2022/10/29 14:20:17;;;;;;;18.45;7.53;;;;;;;;;;4971066;28;20054;-73
2022/10/29 14:22:44;;;;;;;15.45;6.53;;;;;;;;;;4953860;28;20047;-62
2022/10/29 14:25:32;;;;;;;12.57;5.78;;;;;;;;;;4955235;28;20050;-63
2022/10/29 14:28:12;;;;;;;15.98;6.45;;;;;;;;;;4951123;28;20083;-61
2022/10/29 14:30:37;;;;;;;14.60;5.85;;;;;;;;;;4933338;28;20039;-60
2022/10/29 14:33:16;;;;;;;18.20;6.05;;;;;;;;;;4947160;28;20406;-64
2022/10/29 14:35:44;;;;;;;18.27;6.40;;;;;;;;;;4954261;28;20532;-57
2022/10/29 14:38:12;;;;;;;13.90;5.38;;;;;;;;;;4941513;28;20046;-57
2022/10/29 14:40:37;;;;;;;15.32;6.35;;;;;;;;;;4957855;28;20051;-63
2022/10/29 14:43:04;;;;;;;17.63;6.40;;;;;;;;;;4951010;28;20049;-62
2022/10/29 14:45:30;;;;;;;19.20;6.35;;;;;;;;;;4967722;28;21775;-62
2022/10/29 14:47:58;;;;;;;19.52;6.07;;;;;;;;;;4959978;28;20038;-62
2022/10/29 14:50:28;;;;;;;15.20;6.35;;;;;;;;;;4951350;28;20046;-59
2022/10/29 14:53:07;;;;;;;13.32;5.45;;;;;;;;;;4958640;28;20093;-59
2022/10/29 14:55:35;;;;;;;19.17;6.20;;;;;;;;;;4964537;28;20050;-57